createdAt,value
2022-10-23T00:01:44.695Z,100.00
2022-10-23T00:04:17.567Z,100.00
2022-10-23T00:06:45.998Z,100.00
2022-10-23T00:09:17.779Z,100.00
2022-10-23T00:11:50.251Z,100.00
2022-10-23T00:14:21.773Z,100.00
2022-10-23T00:16:49.007Z,100.00
2022-10-23T00:19:16.421Z,100.00
2022-10-23T00:21:43.686Z,100.00
2022-10-23T00:24:11.348Z,100.00
2022-10-23T00:26:40.640Z,100.00
2022-10-23T00:29:10.040Z,100.00
2022-10-23T00:31:38.632Z,100.00
2022-10-23T00:34:08.558Z,100.00
2022-10-23T00:36:37.776Z,100.00
2022-10-23T00:39:06.122Z,100.00
2022-10-23T00:41:33.686Z,100.00
2022-10-23T00:44:29.970Z,100.00
2022-10-23T00:46:59.049Z,100.00
2022-10-23T00:49:28.335Z,100.00
2022-10-23T00:52:05.047Z,100.00
2022-10-23T00:54:39.988Z,100.00
2022-10-23T00:57:12.694Z,100.00
2022-10-23T00:59:40.544Z,100.00
2022-10-23T01:02:08.166Z,100.00
2022-10-23T01:04:36.436Z,100.00
2022-10-23T01:07:33.255Z,100.00
2022-10-23T01:10:15.462Z,100.00
2022-10-23T01:12:56.883Z,100.00
2022-10-23T01:15:37.927Z,100.00
2022-10-23T01:18:37.294Z,100.00
2022-10-23T01:21:30.704Z,100.00
2022-10-23T01:24:09.237Z,100.00
2022-10-23T01:27:09.843Z,100.00
2022-10-23T01:30:01.578Z,100.00
2022-10-23T01:32:42.909Z,100.00
2022-10-23T01:35:24.286Z,100.00
2022-10-23T01:38:09.118Z,100.00
2022-10-23T01:41:02.178Z,100.00
2022-10-23T01:44:00.105Z,100.00
2022-10-23T01:46:28.884Z,100.00
2022-10-23T01:48:59.833Z,100.00
2022-10-23T01:51:31.993Z,100.00
2022-10-23T01:54:01.500Z,100.00
2022-10-23T01:56:35.924Z,100.00
2022-10-23T01:59:10.680Z,100.00
2022-10-23T02:01:44.370Z,100.00
2022-10-23T02:04:18.570Z,100.00
2022-10-23T02:06:45.961Z,100.00
2022-10-23T02:09:13.412Z,100.00
2022-10-23T02:11:54.928Z,100.00
2022-10-23T02:14:56.837Z,100.00
2022-10-23T02:17:49.223Z,100.00
2022-10-23T02:20:28.129Z,100.00
2022-10-23T02:23:19.123Z,100.00
2022-10-23T02:26:12.890Z,100.00
2022-10-23T02:28:51.943Z,100.00
2022-10-23T02:31:23.671Z,100.00
2022-10-23T02:33:50.923Z,100.00
2022-10-23T02:36:19.686Z,100.00
2022-10-23T02:38:47.004Z,100.00
2022-10-23T02:41:17.615Z,100.00
2022-10-23T02:44:50.543Z,100.00
2022-10-23T02:47:26.404Z,100.00
2022-10-23T02:50:33.262Z,100.00
2022-10-23T02:53:35.928Z,100.00
2022-10-23T02:56:36.658Z,100.00
2022-10-23T02:59:24.768Z,100.00
2022-10-23T03:02:02.595Z,100.00
2022-10-23T03:04:32.868Z,100.00
2022-10-23T03:07:00.458Z,100.00
2022-10-23T03:09:27.966Z,100.00
2022-10-23T03:11:55.475Z,100.00
2022-10-23T03:14:22.695Z,100.00
2022-10-23T03:16:50.111Z,100.00
2022-10-23T03:19:17.311Z,100.00
2022-10-23T03:21:44.655Z,100.00
2022-10-23T03:24:11.846Z,100.00
2022-10-23T03:26:39.240Z,100.00
2022-10-23T03:29:06.751Z,100.00
2022-10-23T03:31:34.125Z,100.00
2022-10-23T03:34:04.040Z,100.00
2022-10-23T03:36:33.679Z,100.00
2022-10-23T03:39:00.939Z,100.00
2022-10-23T03:41:28.511Z,100.00
2022-10-23T03:43:55.752Z,100.00
2022-10-23T03:46:23.590Z,100.00
2022-10-23T03:48:50.730Z,100.00
2022-10-23T03:51:18.161Z,100.00
2022-10-23T03:53:45.363Z,100.00
2022-10-23T03:56:12.722Z,100.00
2022-10-23T03:58:39.959Z,100.00
2022-10-23T04:01:07.538Z,100.00
2022-10-23T04:03:34.865Z,100.00
2022-10-23T04:06:02.283Z,100.00
2022-10-23T04:08:29.462Z,100.00
2022-10-23T04:10:57.155Z,100.00
2022-10-23T04:13:24.353Z,100.00
2022-10-23T04:15:53.761Z,100.00
2022-10-23T04:18:20.977Z,100.00
2022-10-23T04:20:50.867Z,100.00
2022-10-23T04:23:18.741Z,100.00
2022-10-23T04:28:15.257Z,100.00
2022-10-23T04:30:42.711Z,100.00
2022-10-23T04:33:09.910Z,100.00
2022-10-23T04:35:37.357Z,100.00
2022-10-23T04:38:04.615Z,100.00
2022-10-23T04:40:32.058Z,100.00
2022-10-23T04:42:59.315Z,100.00
2022-10-23T04:45:27.091Z,100.00
2022-10-23T04:47:54.350Z,100.00
2022-10-23T04:50:22.196Z,100.00
2022-10-23T04:52:53.547Z,100.00
2022-10-23T04:55:21.119Z,100.00
2022-10-23T04:57:48.782Z,100.00
2022-10-23T05:00:16.379Z,100.00
2022-10-23T05:02:44.375Z,100.00
2022-10-23T05:05:12.021Z,100.00
2022-10-23T05:07:39.727Z,100.00
2022-10-23T05:10:07.963Z,100.00
2022-10-23T05:12:35.137Z,100.00
2022-10-23T05:15:02.549Z,100.00
2022-10-23T05:17:40.392Z,100.00
2022-10-23T05:20:15.514Z,100.00
2022-10-23T05:22:46.311Z,100.00
2022-10-23T05:25:13.983Z,100.00
2022-10-23T05:27:41.450Z,100.00
2022-10-23T05:30:10.568Z,100.00
2022-10-23T05:32:39.088Z,100.00
2022-10-23T05:35:16.787Z,100.00
2022-10-23T05:37:48.119Z,100.00
2022-10-23T05:40:15.996Z,100.00
2022-10-23T05:42:43.519Z,100.00
2022-10-23T05:45:11.991Z,100.00
2022-10-23T05:47:39.212Z,100.00
2022-10-23T05:50:07.284Z,100.00
2022-10-23T05:52:34.535Z,100.00
2022-10-23T05:55:02.004Z,100.00
2022-10-23T05:57:33.057Z,100.00
2022-10-23T06:00:00.641Z,100.00
2022-10-23T06:02:28.064Z,100.00
2022-10-23T06:04:55.279Z,100.00
2022-10-23T06:07:31.275Z,100.00
2022-10-23T06:10:00.927Z,100.00
2022-10-23T06:12:28.369Z,100.00
2022-10-23T06:14:55.647Z,100.00
2022-10-23T06:17:23.007Z,100.00
2022-10-23T06:19:50.199Z,100.00
2022-10-23T06:22:17.586Z,100.00
2022-10-23T06:24:44.807Z,100.00
2022-10-23T06:27:12.154Z,100.00
2022-10-23T06:29:39.499Z,100.00
2022-10-23T06:32:07.044Z,100.00
2022-10-23T06:34:34.393Z,100.00
2022-10-23T06:37:02.025Z,100.00
2022-10-23T06:39:31.976Z,100.00
2022-10-23T06:41:59.832Z,100.00
2022-10-23T06:44:26.981Z,100.00
2022-10-23T06:46:54.370Z,100.00
2022-10-23T06:49:21.525Z,100.00
2022-10-23T06:51:48.963Z,100.00
2022-10-23T06:54:16.137Z,100.00
2022-10-23T06:56:43.325Z,100.00
2022-10-23T06:59:10.670Z,100.00
2022-10-23T07:01:38.473Z,100.00
2022-10-23T07:04:06.056Z,100.00
2022-10-23T07:06:33.237Z,100.00
2022-10-23T07:09:00.673Z,99.12
2022-10-23T07:11:27.902Z,97.91
2022-10-23T07:13:55.400Z,97.07
2022-10-23T07:16:23.977Z,96.41
2022-10-23T07:19:01.306Z,95.37
2022-10-23T07:21:37.282Z,95.03
2022-10-23T07:24:05.177Z,93.45
2022-10-23T07:26:32.976Z,92.07
2022-10-23T07:29:00.362Z,91.11
2022-10-23T07:31:28.495Z,90.85
2022-10-23T07:33:56.207Z,90.75
2022-10-23T07:36:23.849Z,90.99
2022-10-23T07:38:52.379Z,90.00
2022-10-23T07:41:19.891Z,89.70
2022-10-23T07:43:47.402Z,89.55
2022-10-23T07:46:14.751Z,88.69
2022-10-23T07:48:42.410Z,89.50
2022-10-23T07:51:14.696Z,90.87
2022-10-23T07:53:44.624Z,88.51
2022-10-23T07:56:22.385Z,87.92
2022-10-23T07:58:53.840Z,87.79
2022-10-23T08:01:37.182Z,88.93
2022-10-23T08:04:05.610Z,90.05
2022-10-23T08:06:35.393Z,90.91
2022-10-23T08:09:06.507Z,91.25
2022-10-23T08:11:37.553Z,91.85
2022-10-23T08:14:06.877Z,91.41
2022-10-23T08:16:37.728Z,91.98
2022-10-23T08:19:07.977Z,92.64
2022-10-23T08:21:35.289Z,93.49
2022-10-23T08:24:02.687Z,93.86
2022-10-23T08:26:30.004Z,93.74
2022-10-23T08:28:59.863Z,93.93
2022-10-23T08:31:27.239Z,94.20
2022-10-23T08:33:54.709Z,94.03
2022-10-23T08:36:28.146Z,93.27
2022-10-23T08:38:58.070Z,93.29
2022-10-23T08:41:31.182Z,93.12
2022-10-23T08:44:55.882Z,92.42
2022-10-23T08:47:53.326Z,90.58
2022-10-23T08:50:26.685Z,88.92
2022-10-23T08:53:25.448Z,87.42
2022-10-23T08:56:04.671Z,86.25
2022-10-23T08:58:46.913Z,83.72
2022-10-23T09:07:20.683Z,77.76
2022-10-23T09:10:42.799Z,79.69
2022-10-23T09:13:48.296Z,82.87
2022-10-23T09:16:30.300Z,83.50
2022-10-23T09:18:58.592Z,84.35
2022-10-23T09:21:29.688Z,84.17
2022-10-23T09:23:57.289Z,84.27
2022-10-23T09:26:24.752Z,84.77
2022-10-23T09:29:02.827Z,85.50
2022-10-23T09:31:30.226Z,85.14
2022-10-23T09:34:01.451Z,85.12
2022-10-23T09:36:29.876Z,85.41
2022-10-23T09:38:59.966Z,86.36
2022-10-23T09:41:31.574Z,87.75
2022-10-23T09:44:04.469Z,88.64
2022-10-23T09:46:47.856Z,89.75
2022-10-23T09:49:35.371Z,89.84
2022-10-23T09:52:35.136Z,89.74
2022-10-23T09:55:19.904Z,88.69
2022-10-23T09:57:48.150Z,87.90
2022-10-23T10:00:25.257Z,87.12
2022-10-23T10:03:06.351Z,85.15
2022-10-23T10:05:41.483Z,82.89
2022-10-23T10:08:28.547Z,79.31
2022-10-23T10:11:06.863Z,77.21
2022-10-23T10:13:34.223Z,73.75
2022-10-23T10:16:27.444Z,69.71
2022-10-23T10:19:20.663Z,64.67
2022-10-23T10:22:08.867Z,62.16
2022-10-23T10:25:02.962Z,61.14
2022-10-23T10:28:12.658Z,55.61
2022-10-23T10:31:30.645Z,48.41
2022-10-23T10:34:07.125Z,48.97
2022-10-23T10:37:29.596Z,44.98
2022-10-23T10:40:23.658Z,40.76
2022-10-23T10:43:38.354Z,34.68
2022-10-23T10:46:23.251Z,36.42
2022-10-23T10:49:26.907Z,37.24
2022-10-23T10:52:03.166Z,36.43
2022-10-23T10:54:53.642Z,33.19
2022-10-23T10:57:37.146Z,31.10
2022-10-23T11:00:18.277Z,27.92
2022-10-23T11:02:49.833Z,25.51
2022-10-23T11:05:35.033Z,24.54
2022-10-23T11:08:22.344Z,23.51
2022-10-23T11:11:00.485Z,25.20
2022-10-23T11:13:43.071Z,24.63
2022-10-23T11:16:20.237Z,24.86
2022-10-23T11:19:17.733Z,25.11
2022-10-23T11:22:20.823Z,25.83
2022-10-23T11:24:57.245Z,27.71
2022-10-23T11:27:34.476Z,30.11
2022-10-23T11:30:08.720Z,32.91
2022-10-23T11:33:12.954Z,35.77
2022-10-23T11:35:54.483Z,39.33
2022-10-23T11:38:30.053Z,41.24
2022-10-23T11:41:19.874Z,39.21
2022-10-23T11:44:01.572Z,33.58
2022-10-23T11:46:38.778Z,31.29
2022-10-23T11:49:21.274Z,32.10
2022-10-23T11:52:03.042Z,32.56
2022-10-23T11:54:30.623Z,31.10
2022-10-23T11:57:17.699Z,30.28
2022-10-23T11:59:48.195Z,29.92
2022-10-23T12:02:33.116Z,30.97
2022-10-23T12:05:08.780Z,31.53
2022-10-23T12:07:41.972Z,33.74
2022-10-23T12:10:30.062Z,36.65
2022-10-23T12:13:00.043Z,38.31
2022-10-23T12:15:28.730Z,35.85
2022-10-23T12:18:17.099Z,29.62
2022-10-23T12:20:53.402Z,26.18
2022-10-23T12:23:38.771Z,24.65
2022-10-23T12:26:33.594Z,22.22
2022-10-23T12:30:01.867Z,21.62
2022-10-23T12:32:54.399Z,23.73
2022-10-23T12:35:59.079Z,24.00
2022-10-23T12:38:33.851Z,24.00
2022-10-23T12:41:26.143Z,23.35
2022-10-23T12:44:05.717Z,22.81
2022-10-23T12:47:04.423Z,23.00
2022-10-23T12:49:34.231Z,23.64
2022-10-23T12:52:05.897Z,24.38
2022-10-23T12:54:39.435Z,23.72
2022-10-23T12:57:30.362Z,23.92
2022-10-23T13:00:04.612Z,25.05
2022-10-23T13:02:34.395Z,25.48
2022-10-23T13:05:07.445Z,26.71
2022-10-23T13:07:42.731Z,27.52
2022-10-23T13:10:23.781Z,26.87
2022-10-23T13:13:04.788Z,26.60
2022-10-23T13:15:44.916Z,26.62
2022-10-23T13:18:15.589Z,27.32
2022-10-23T13:21:03.470Z,26.50
2022-10-23T13:23:34.983Z,27.12
2022-10-23T13:26:07.043Z,27.05
2022-10-23T13:28:52.647Z,27.44
2022-10-23T13:31:33.665Z,27.68
2022-10-23T13:34:00.799Z,28.02
2022-10-23T13:36:37.107Z,28.10
2022-10-23T13:39:10.510Z,28.58
2022-10-23T13:41:44.995Z,28.91
2022-10-23T13:44:18.963Z,28.33
2022-10-23T13:46:48.399Z,27.84
2022-10-23T13:49:16.744Z,27.69
2022-10-23T13:51:54.459Z,27.39
2022-10-23T13:57:00.376Z,29.56
2022-10-23T13:59:27.678Z,31.02
2022-10-23T14:01:55.340Z,32.35
2022-10-23T14:04:23.750Z,32.65
2022-10-23T14:06:54.835Z,33.16
2022-10-23T14:09:22.072Z,33.59
2022-10-23T14:11:49.562Z,34.70
2022-10-23T14:14:16.784Z,34.23
2022-10-23T14:16:44.187Z,35.77
2022-10-23T14:19:11.879Z,35.99
2022-10-23T14:21:39.309Z,36.79
2022-10-23T14:24:06.928Z,38.03
2022-10-23T14:26:34.414Z,38.90
2022-10-23T14:29:05.153Z,39.20
2022-10-23T14:31:37.308Z,39.75
2022-10-23T14:34:04.569Z,40.49
2022-10-23T14:36:38.874Z,41.17
2022-10-23T14:39:17.649Z,41.67
2022-10-23T14:41:45.234Z,42.49
2022-10-23T14:44:12.489Z,43.05
2022-10-23T14:46:39.904Z,44.78
2022-10-23T14:49:07.117Z,45.97
2022-10-23T14:51:34.644Z,46.60
2022-10-23T14:54:05.512Z,47.61
2022-10-23T14:56:37.802Z,48.79
2022-10-23T14:59:05.712Z,49.99
2022-10-23T15:01:43.494Z,50.80
2022-10-23T15:04:14.832Z,51.68
2022-10-23T15:06:44.266Z,52.22
2022-10-23T15:09:11.617Z,53.00
2022-10-23T15:11:39.229Z,53.71
2022-10-23T15:14:07.425Z,55.32
2022-10-23T15:16:41.400Z,55.56
2022-10-23T15:19:15.170Z,55.96
2022-10-23T15:21:48.056Z,57.07
2022-10-23T15:24:17.374Z,58.91
2022-10-23T15:26:45.335Z,58.87
2022-10-23T15:29:14.834Z,59.10
2022-10-23T15:32:01.991Z,59.50
2022-10-23T15:34:30.488Z,59.69
2022-10-23T15:36:58.906Z,60.19
2022-10-23T15:39:33.696Z,60.15
2022-10-23T15:42:03.616Z,60.78
2022-10-23T15:44:33.618Z,61.20
2022-10-23T15:47:01.231Z,61.20
2022-10-23T15:49:30.091Z,61.71
2022-10-23T15:51:57.933Z,63.01
2022-10-23T15:54:28.121Z,63.35
2022-10-23T15:56:58.255Z,65.11
2022-10-23T15:59:26.497Z,65.38
2022-10-23T16:01:54.178Z,65.93
2022-10-23T16:04:22.143Z,66.18
2022-10-23T16:06:49.921Z,66.67
2022-10-23T16:09:17.609Z,67.34
2022-10-23T16:11:45.443Z,67.54
2022-10-23T16:14:17.246Z,67.91
2022-10-23T16:16:44.792Z,69.14
2022-10-23T16:19:12.861Z,69.53
2022-10-23T16:21:41.930Z,69.27
2022-10-23T16:24:10.226Z,69.38
2022-10-23T16:26:38.489Z,69.47
2022-10-23T16:29:08.569Z,70.10
2022-10-23T16:31:36.372Z,70.27
2022-10-23T16:34:05.588Z,70.53
2022-10-23T16:36:34.120Z,70.71
2022-10-23T16:39:03.681Z,70.57
2022-10-23T16:41:32.338Z,70.83
2022-10-23T16:43:59.986Z,71.44
2022-10-23T16:46:28.087Z,71.88
2022-10-23T16:48:55.411Z,71.99
2022-10-23T16:51:26.174Z,71.65
2022-10-23T16:53:54.046Z,72.00
2022-10-23T16:56:25.294Z,72.30
2022-10-23T16:58:52.692Z,72.42
2022-10-23T17:01:32.985Z,72.80
2022-10-23T17:04:01.415Z,72.63
2022-10-23T17:06:32.424Z,72.88
2022-10-23T17:09:02.022Z,73.16
2022-10-23T17:11:37.050Z,73.26
2022-10-23T17:14:08.030Z,73.43
2022-10-23T17:16:37.809Z,74.12
2022-10-23T17:19:15.929Z,74.18
2022-10-23T17:21:56.184Z,74.34
2022-10-23T17:24:24.802Z,74.99
2022-10-23T17:26:54.062Z,75.24
2022-10-23T17:29:21.720Z,76.40
2022-10-23T17:31:50.865Z,76.72
2022-10-23T17:34:22.995Z,76.12
2022-10-23T17:36:53.575Z,76.29
2022-10-23T17:39:25.656Z,76.67
2022-10-23T17:41:54.266Z,76.99
2022-10-23T17:44:22.603Z,76.97
2022-10-23T17:46:53.674Z,77.15
2022-10-23T17:49:22.442Z,76.91
2022-10-23T17:51:58.241Z,76.97
2022-10-23T17:54:27.295Z,76.57
2022-10-23T17:56:56.508Z,76.71
2022-10-23T17:59:23.965Z,76.91
2022-10-23T18:01:51.729Z,77.25
2022-10-23T18:04:20.475Z,77.52
2022-10-23T18:06:52.720Z,78.26
2022-10-23T18:09:22.003Z,80.07
2022-10-23T18:11:50.384Z,81.21
2022-10-23T18:14:21.480Z,82.19
2022-10-23T18:16:50.876Z,83.52
2022-10-23T18:19:19.677Z,84.61
2022-10-23T18:21:48.302Z,85.09
2022-10-23T18:24:16.677Z,84.78
2022-10-23T18:26:44.752Z,84.82
2022-10-23T18:29:13.798Z,85.26
2022-10-23T18:31:42.401Z,86.09
2022-10-23T18:34:23.799Z,86.25
2022-10-23T18:36:54.399Z,86.29
2022-10-23T18:39:25.312Z,87.09
2022-10-23T18:41:57.044Z,87.06
2022-10-23T18:44:29.115Z,87.86
2022-10-23T18:46:59.300Z,87.14
2022-10-23T18:49:27.076Z,87.65
2022-10-23T18:51:54.977Z,87.81
2022-10-23T18:54:22.963Z,88.53
2022-10-23T18:56:51.002Z,88.18
2022-10-23T18:59:20.684Z,88.41
2022-10-23T19:01:49.826Z,88.80
2022-10-23T19:04:18.509Z,89.23
2022-10-23T19:06:48.770Z,88.93
2022-10-23T19:09:16.600Z,89.20
2022-10-23T19:11:45.604Z,89.96
2022-10-23T19:14:13.492Z,89.83
2022-10-23T19:17:00.426Z,89.95
2022-10-23T19:19:35.908Z,90.51
2022-10-23T19:22:04.908Z,91.37
2022-10-23T19:24:43.862Z,90.59
2022-10-23T19:27:11.861Z,91.20
2022-10-23T19:29:45.134Z,92.75
2022-10-23T19:32:13.043Z,92.42
2022-10-23T19:34:40.870Z,91.87
2022-10-23T19:37:08.461Z,91.56
2022-10-23T19:39:35.942Z,91.04
2022-10-23T19:42:03.470Z,91.85
2022-10-23T19:44:31.516Z,90.75
2022-10-23T19:46:58.953Z,90.14
2022-10-23T19:49:26.236Z,89.30
2022-10-23T19:51:53.779Z,89.09
2022-10-23T19:54:21.833Z,88.84
2022-10-23T19:56:50.247Z,89.02
2022-10-23T19:59:18.309Z,90.73
2022-10-23T20:01:48.111Z,91.06
2022-10-23T20:04:19.823Z,91.07
2022-10-23T20:06:48.152Z,91.38
2022-10-23T20:09:15.778Z,91.56
2022-10-23T20:11:45.301Z,93.03
2022-10-23T20:14:13.698Z,93.32
2022-10-23T20:16:44.895Z,93.39
2022-10-23T20:21:49.439Z,93.68
2022-10-23T20:24:19.147Z,94.54
2022-10-23T20:26:52.291Z,93.96
2022-10-23T20:29:20.950Z,94.35
2022-10-23T20:31:48.684Z,93.40
2022-10-23T20:34:16.081Z,93.69
2022-10-23T20:36:47.408Z,94.23
2022-10-23T20:39:19.354Z,93.79
2022-10-23T20:41:47.370Z,93.70
2022-10-23T20:46:50.834Z,94.11
2022-10-23T20:49:19.623Z,93.94
2022-10-23T20:51:54.999Z,93.69
2022-10-23T20:54:28.766Z,94.57
2022-10-23T20:56:57.190Z,94.50
2022-10-23T20:59:25.457Z,94.00
2022-10-23T21:01:55.366Z,94.08
2022-10-23T21:04:27.476Z,93.71
2022-10-23T21:07:09.441Z,94.08
2022-10-23T21:09:39.287Z,94.16
2022-10-23T21:12:07.935Z,94.56
2022-10-23T21:14:36.161Z,94.51
2022-10-23T21:17:03.975Z,95.66
2022-10-23T21:19:31.311Z,95.77
2022-10-23T21:21:58.645Z,94.98
2022-10-23T21:24:25.895Z,94.49
2022-10-23T21:26:53.254Z,94.45
2022-10-23T21:29:20.936Z,96.08
2022-10-23T21:32:01.139Z,95.77
2022-10-23T21:34:29.407Z,95.72
2022-10-23T21:37:14.251Z,95.97
2022-10-23T21:39:44.110Z,96.19
2022-10-23T21:42:13.648Z,96.01
2022-10-23T21:44:41.048Z,95.63
2022-10-23T21:47:08.693Z,95.00
2022-10-23T21:49:36.026Z,94.71
2022-10-23T21:52:05.009Z,94.49
2022-10-23T21:54:32.733Z,94.11
2022-10-23T21:57:00.195Z,94.38
2022-10-23T21:59:30.160Z,94.29
2022-10-23T22:01:59.821Z,93.89
2022-10-23T22:04:27.116Z,93.65
2022-10-23T22:06:54.627Z,93.51
2022-10-23T22:09:22.478Z,94.18
2022-10-23T22:11:52.429Z,93.99
2022-10-23T22:14:22.310Z,94.46
2022-10-23T22:16:50.135Z,94.51
2022-10-23T22:19:19.289Z,94.56
2022-10-23T22:21:48.036Z,94.63
2022-10-23T22:24:17.649Z,94.06
2022-10-23T22:26:52.231Z,93.96
2022-10-23T22:29:26.409Z,94.09
2022-10-23T22:31:54.226Z,93.90
2022-10-23T22:34:48.318Z,94.65
2022-10-23T22:37:13.575Z,94.05
2022-10-23T22:39:41.269Z,94.19
2022-10-23T22:42:08.979Z,94.27
2022-10-23T22:44:36.200Z,93.95
2022-10-23T22:47:03.862Z,93.93
2022-10-23T22:49:31.104Z,93.96
2022-10-23T22:51:58.677Z,93.71
2022-10-23T22:54:25.856Z,93.77
2022-10-23T22:56:53.265Z,93.13
2022-10-23T22:59:20.439Z,92.63
2022-10-23T23:01:49.384Z,92.71
2022-10-23T23:07:12.247Z,91.68
2022-10-23T23:09:44.520Z,91.37
2022-10-23T23:12:14.274Z,91.38
2022-10-23T23:14:42.730Z,91.11
2022-10-23T23:17:10.775Z,91.31
2022-10-23T23:19:38.414Z,91.58
2022-10-23T23:22:06.603Z,91.57
2022-10-23T23:24:34.296Z,91.17
2022-10-23T23:27:04.774Z,91.36
2022-10-23T23:29:32.450Z,91.07
2022-10-23T23:31:59.939Z,90.83
2022-10-23T23:34:27.154Z,90.69
2022-10-23T23:36:54.582Z,90.58
2022-10-23T23:39:21.868Z,90.61
2022-10-23T23:41:49.395Z,90.42
2022-10-23T23:44:16.979Z,90.85
2022-10-23T23:46:44.826Z,91.59
2022-10-23T23:49:12.121Z,93.29
2022-10-23T23:51:39.584Z,93.44
2022-10-23T23:54:06.884Z,93.28
2022-10-23T23:56:34.288Z,92.98
2022-10-23T23:59:01.621Z,94.05
